sensor_id;sensor_type;location;lat;lon;timestamp;P1;durP1;ratioP1;P2;durP2;ratioP2
16826;SDS011;8530;49.540;8.576;2023-05-16T00:01:58;32.00;;;23.83;;
16826;SDS011;8530;49.540;8.576;2023-05-16T00:04:25;32.80;;;25.00;;
16826;SDS011;8530;49.540;8.576;2023-05-16T00:06:51;32.57;;;24.47;;
16826;SDS011;8530;49.540;8.576;2023-05-16T00:09:20;34.77;;;28.60;;
16826;SDS011;8530;49.540;8.576;2023-05-16T00:11:46;38.90;;;29.30;;
16826;SDS011;8530;49.540;8.576;2023-05-16T00:14:14;36.50;;;28.23;;
16826;SDS011;8530;49.540;8.576;2023-05-16T00:16:41;42.30;;;30.40;;
16826;SDS011;8530;49.540;8.576;2023-05-16T00:19:07;38.03;;;28.37;;
16826;SDS011;8530;49.540;8.576;2023-05-16T00:21:34;34.37;;;28.13;;
16826;SDS011;8530;49.540;8.576;2023-05-16T00:24:01;37.30;;;28.93;;
16826;SDS011;8530;49.540;8.576;2023-05-16T00:26:30;39.27;;;31.47;;
16826;SDS011;8530;49.540;8.576;2023-05-16T00:28:57;43.30;;;31.57;;
16826;SDS011;8530;49.540;8.576;2023-05-16T00:31:24;42.37;;;29.37;;
16826;SDS011;8530;49.540;8.576;2023-05-16T00:33:50;40.70;;;31.93;;
16826;SDS011;8530;49.540;8.576;2023-05-16T00:36:18;43.50;;;30.40;;
16826;SDS011;8530;49.540;8.576;2023-05-16T00:38:45;39.70;;;31.80;;
16826;SDS011;8530;49.540;8.576;2023-05-16T00:41:12;39.03;;;30.43;;
16826;SDS011;8530;49.540;8.576;2023-05-16T00:43:40;36.03;;;28.27;;
16826;SDS011;8530;49.540;8.576;2023-05-16T00:46:07;42.13;;;31.43;;
16826;SDS011;8530;49.540;8.576;2023-05-16T00:48:34;42.27;;;32.07;;
16826;SDS011;8530;49.540;8.576;2023-05-16T00:51:01;42.50;;;30.40;;
16826;SDS011;8530;49.540;8.576;2023-05-16T00:53:27;44.50;;;30.60;;
16826;SDS011;8530;49.540;8.576;2023-05-16T00:55:55;46.20;;;33.33;;
16826;SDS011;8530;49.540;8.576;2023-05-16T00:58:22;41.03;;;32.07;;
16826;SDS011;8530;49.540;8.576;2023-05-16T01:00:51;47.80;;;35.37;;
16826;SDS011;8530;49.540;8.576;2023-05-16T01:03:18;46.77;;;33.17;;
16826;SDS011;8530;49.540;8.576;2023-05-16T01:05:45;49.07;;;36.67;;
16826;SDS011;8530;49.540;8.576;2023-05-16T01:08:12;48.60;;;34.10;;
16826;SDS011;8530;49.540;8.576;2023-05-16T01:10:40;42.77;;;33.90;;
16826;SDS011;8530;49.540;8.576;2023-05-16T01:13:16;46.30;;;35.73;;
16826;SDS011;8530;49.540;8.576;2023-05-16T01:15:49;50.70;;;35.97;;
16826;SDS011;8530;49.540;8.576;2023-05-16T01:18:26;46.47;;;36.00;;
16826;SDS011;8530;49.540;8.576;2023-05-16T01:20:59;45.47;;;34.90;;
16826;SDS011;8530;49.540;8.576;2023-05-16T01:23:35;49.00;;;36.87;;
16826;SDS011;8530;49.540;8.576;2023-05-16T01:26:16;53.53;;;37.13;;
16826;SDS011;8530;49.540;8.576;2023-05-16T01:28:45;50.00;;;35.60;;
16826;SDS011;8530;49.540;8.576;2023-05-16T01:31:14;51.37;;;35.80;;
16826;SDS011;8530;49.540;8.576;2023-05-16T01:33:41;46.30;;;36.50;;
16826;SDS011;8530;49.540;8.576;2023-05-16T01:36:10;52.97;;;37.40;;
16826;SDS011;8530;49.540;8.576;2023-05-16T01:38:44;45.00;;;35.20;;
16826;SDS011;8530;49.540;8.576;2023-05-16T01:41:24;48.90;;;37.13;;
16826;SDS011;8530;49.540;8.576;2023-05-16T01:43:57;54.00;;;38.60;;
16826;SDS011;8530;49.540;8.576;2023-05-16T01:46:27;52.17;;;35.33;;
16826;SDS011;8530;49.540;8.576;2023-05-16T01:49:00;49.80;;;37.80;;
16826;SDS011;8530;49.540;8.576;2023-05-16T01:51:40;56.20;;;38.00;;
16826;SDS011;8530;49.540;8.576;2023-05-16T01:54:09;48.70;;;34.97;;
16826;SDS011;8530;49.540;8.576;2023-05-16T01:56:39;48.93;;;37.40;;
16826;SDS011;8530;49.540;8.576;2023-05-16T01:59:11;51.10;;;36.67;;
16826;SDS011;8530;49.540;8.576;2023-05-16T02:01:39;45.67;;;35.20;;
16826;SDS011;8530;49.540;8.576;2023-05-16T02:04:06;58.20;;;38.93;;
16826;SDS011;8530;49.540;8.576;2023-05-16T02:06:33;47.27;;;35.70;;
16826;SDS011;8530;49.540;8.576;2023-05-16T02:09:00;52.60;;;38.50;;
16826;SDS011;8530;49.540;8.576;2023-05-16T02:11:26;47.87;;;37.40;;
16826;SDS011;8530;49.540;8.576;2023-05-16T02:13:54;49.40;;;37.20;;
16826;SDS011;8530;49.540;8.576;2023-05-16T02:16:21;52.17;;;36.03;;
16826;SDS011;8530;49.540;8.576;2023-05-16T02:18:48;55.30;;;37.00;;
16826;SDS011;8530;49.540;8.576;2023-05-16T02:21:14;54.67;;;37.90;;
16826;SDS011;8530;49.540;8.576;2023-05-16T02:23:41;51.40;;;37.30;;
16826;SDS011;8530;49.540;8.576;2023-05-16T02:26:08;50.27;;;36.17;;
16826;SDS011;8530;49.540;8.576;2023-05-16T02:28:35;52.27;;;35.30;;
16826;SDS011;8530;49.540;8.576;2023-05-16T02:31:03;51.87;;;36.20;;
16826;SDS011;8530;49.540;8.576;2023-05-16T02:33:29;44.30;;;35.13;;
16826;SDS011;8530;49.540;8.576;2023-05-16T02:35:56;44.80;;;33.17;;
16826;SDS011;8530;49.540;8.576;2023-05-16T02:38:23;45.33;;;33.57;;
16826;SDS011;8530;49.540;8.576;2023-05-16T02:40:49;43.93;;;32.30;;
16826;SDS011;8530;49.540;8.576;2023-05-16T02:43:16;40.80;;;30.50;;
16826;SDS011;8530;49.540;8.576;2023-05-16T02:45:43;38.03;;;28.93;;
16826;SDS011;8530;49.540;8.576;2023-05-16T02:48:11;37.93;;;30.97;;
16826;SDS011;8530;49.540;8.576;2023-05-16T02:50:38;37.50;;;28.03;;
16826;SDS011;8530;49.540;8.576;2023-05-16T02:53:06;39.40;;;28.70;;
16826;SDS011;8530;49.540;8.576;2023-05-16T02:55:33;40.00;;;27.10;;
16826;SDS011;8530;49.540;8.576;2023-05-16T02:58:00;42.27;;;27.20;;
16826;SDS011;8530;49.540;8.576;2023-05-16T03:00:26;41.90;;;26.80;;
16826;SDS011;8530;49.540;8.576;2023-05-16T03:02:53;37.87;;;26.43;;
16826;SDS011;8530;49.540;8.576;2023-05-16T03:05:21;36.60;;;27.87;;
16826;SDS011;8530;49.540;8.576;2023-05-16T03:07:48;40.13;;;28.30;;
16826;SDS011;8530;49.540;8.576;2023-05-16T03:10:14;38.10;;;24.87;;
16826;SDS011;8530;49.540;8.576;2023-05-16T03:12:41;29.83;;;25.03;;
16826;SDS011;8530;49.540;8.576;2023-05-16T03:15:08;33.50;;;26.27;;
16826;SDS011;8530;49.540;8.576;2023-05-16T03:17:35;35.87;;;26.37;;
16826;SDS011;8530;49.540;8.576;2023-05-16T03:20:02;31.93;;;24.83;;
16826;SDS011;8530;49.540;8.576;2023-05-16T03:22:34;39.10;;;25.00;;
16826;SDS011;8530;49.540;8.576;2023-05-16T03:25:00;29.53;;;25.20;;
16826;SDS011;8530;49.540;8.576;2023-05-16T03:27:28;32.50;;;25.00;;
16826;SDS011;8530;49.540;8.576;2023-05-16T03:29:54;31.20;;;24.67;;
16826;SDS011;8530;49.540;8.576;2023-05-16T03:32:21;36.17;;;26.33;;
16826;SDS011;8530;49.540;8.576;2023-05-16T03:34:48;37.63;;;24.90;;
16826;SDS011;8530;49.540;8.576;2023-05-16T03:37:14;39.70;;;26.60;;
16826;SDS011;8530;49.540;8.576;2023-05-16T03:39:42;32.73;;;25.40;;
16826;SDS011;8530;49.540;8.576;2023-05-16T03:42:09;37.97;;;25.00;;
16826;SDS011;8530;49.540;8.576;2023-05-16T03:44:36;36.20;;;25.60;;
16826;SDS011;8530;49.540;8.576;2023-05-16T03:47:02;35.40;;;24.20;;
16826;SDS011;8530;49.540;8.576;2023-05-16T03:49:30;35.80;;;24.30;;
16826;SDS011;8530;49.540;8.576;2023-05-16T03:51:57;38.20;;;26.07;;
16826;SDS011;8530;49.540;8.576;2023-05-16T03:54:23;35.60;;;25.53;;
16826;SDS011;8530;49.540;8.576;2023-05-16T03:56:51;31.33;;;24.17;;
16826;SDS011;8530;49.540;8.576;2023-05-16T03:59:18;34.20;;;24.50;;
16826;SDS011;8530;49.540;8.576;2023-05-16T04:01:45;31.77;;;24.00;;
16826;SDS011;8530;49.540;8.576;2023-05-16T04:04:12;36.77;;;23.90;;
16826;SDS011;8530;49.540;8.576;2023-05-16T04:06:39;31.03;;;22.20;;
16826;SDS011;8530;49.540;8.576;2023-05-16T04:09:05;29.13;;;24.13;;
16826;SDS011;8530;49.540;8.576;2023-05-16T04:11:33;35.30;;;24.77;;
16826;SDS011;8530;49.540;8.576;2023-05-16T04:14:01;34.17;;;23.73;;
16826;SDS011;8530;49.540;8.576;2023-05-16T04:16:28;35.73;;;23.67;;
16826;SDS011;8530;49.540;8.576;2023-05-16T04:18:55;31.17;;;21.37;;
16826;SDS011;8530;49.540;8.576;2023-05-16T04:21:21;27.97;;;22.50;;
16826;SDS011;8530;49.540;8.576;2023-05-16T04:23:48;29.37;;;23.10;;
16826;SDS011;8530;49.540;8.576;2023-05-16T04:26:15;32.37;;;21.37;;
16826;SDS011;8530;49.540;8.576;2023-05-16T04:28:41;28.33;;;21.33;;
16826;SDS011;8530;49.540;8.576;2023-05-16T04:31:10;30.63;;;20.90;;
16826;SDS011;8530;49.540;8.576;2023-05-16T04:33:38;30.40;;;23.20;;
16826;SDS011;8530;49.540;8.576;2023-05-16T04:36:05;33.10;;;22.37;;
16826;SDS011;8530;49.540;8.576;2023-05-16T04:38:32;28.23;;;22.13;;
16826;SDS011;8530;49.540;8.576;2023-05-16T04:40:59;27.97;;;21.67;;
16826;SDS011;8530;49.540;8.576;2023-05-16T04:43:26;32.27;;;20.93;;
16826;SDS011;8530;49.540;8.576;2023-05-16T04:45:52;27.13;;;20.13;;
16826;SDS011;8530;49.540;8.576;2023-05-16T04:48:21;29.50;;;19.40;;
16826;SDS011;8530;49.540;8.576;2023-05-16T04:50:47;29.77;;;20.70;;
16826;SDS011;8530;49.540;8.576;2023-05-16T04:53:14;29.43;;;20.33;;
16826;SDS011;8530;49.540;8.576;2023-05-16T04:55:41;29.37;;;22.10;;
16826;SDS011;8530;49.540;8.576;2023-05-16T04:58:07;33.00;;;19.70;;
16826;SDS011;8530;49.540;8.576;2023-05-16T05:00:34;26.33;;;19.70;;
16826;SDS011;8530;49.540;8.576;2023-05-16T05:03:02;31.90;;;19.33;;
16826;SDS011;8530;49.540;8.576;2023-05-16T05:05:30;28.30;;;19.13;;
16826;SDS011;8530;49.540;8.576;2023-05-16T05:07:57;24.00;;;18.03;;
16826;SDS011;8530;49.540;8.576;2023-05-16T05:10:24;30.00;;;20.90;;
16826;SDS011;8530;49.540;8.576;2023-05-16T05:12:51;32.10;;;20.57;;
16826;SDS011;8530;49.540;8.576;2023-05-16T05:15:18;31.80;;;20.63;;
16826;SDS011;8530;49.540;8.576;2023-05-16T05:17:45;26.00;;;18.30;;
16826;SDS011;8530;49.540;8.576;2023-05-16T05:20:11;33.57;;;19.53;;
16826;SDS011;8530;49.540;8.576;2023-05-16T05:22:39;25.67;;;19.03;;
16826;SDS011;8530;49.540;8.576;2023-05-16T05:25:06;23.00;;;18.37;;
16826;SDS011;8530;49.540;8.576;2023-05-16T05:27:34;31.87;;;19.83;;
16826;SDS011;8530;49.540;8.576;2023-05-16T05:30:01;35.43;;;18.90;;
16826;SDS011;8530;49.540;8.576;2023-05-16T05:32:27;29.90;;;20.33;;
16826;SDS011;8530;49.540;8.576;2023-05-16T05:34:55;26.57;;;17.40;;
16826;SDS011;8530;49.540;8.576;2023-05-16T05:37:21;25.50;;;17.30;;
16826;SDS011;8530;49.540;8.576;2023-05-16T05:39:50;20.27;;;15.13;;
16826;SDS011;8530;49.540;8.576;2023-05-16T05:42:17;24.67;;;16.90;;
16826;SDS011;8530;49.540;8.576;2023-05-16T05:44:44;21.00;;;15.13;;
16826;SDS011;8530;49.540;8.576;2023-05-16T05:47:10;19.60;;;16.00;;
16826;SDS011;8530;49.540;8.576;2023-05-16T05:49:37;22.33;;;15.67;;
16826;SDS011;8530;49.540;8.576;2023-05-16T05:52:04;20.23;;;14.17;;
16826;SDS011;8530;49.540;8.576;2023-05-16T05:54:31;20.40;;;14.90;;
16826;SDS011;8530;49.540;8.576;2023-05-16T05:56:59;25.33;;;15.03;;
16826;SDS011;8530;49.540;8.576;2023-05-16T05:59:26;22.63;;;14.23;;
16826;SDS011;8530;49.540;8.576;2023-05-16T06:01:53;19.57;;;12.67;;
16826;SDS011;8530;49.540;8.576;2023-05-16T06:04:20;17.20;;;12.87;;
16826;SDS011;8530;49.540;8.576;2023-05-16T06:06:47;18.00;;;13.47;;
16826;SDS011;8530;49.540;8.576;2023-05-16T06:09:14;15.47;;;12.50;;
16826;SDS011;8530;49.540;8.576;2023-05-16T06:11:41;15.70;;;12.30;;
16826;SDS011;8530;49.540;8.576;2023-05-16T06:14:11;17.67;;;11.37;;
16826;SDS011;8530;49.540;8.576;2023-05-16T06:16:39;18.07;;;11.27;;
16826;SDS011;8530;49.540;8.576;2023-05-16T06:19:06;16.40;;;10.87;;
16826;SDS011;8530;49.540;8.576;2023-05-16T06:21:33;13.20;;;9.30;;
16826;SDS011;8530;49.540;8.576;2023-05-16T06:24:00;10.80;;;8.70;;
16826;SDS011;8530;49.540;8.576;2023-05-16T06:26:27;10.27;;;8.23;;
16826;SDS011;8530;49.540;8.576;2023-05-16T06:28:54;8.87;;;7.67;;
16826;SDS011;8530;49.540;8.576;2023-05-16T06:31:22;15.50;;;6.00;;
16826;SDS011;8530;49.540;8.576;2023-05-16T06:33:48;8.50;;;6.40;;
16826;SDS011;8530;49.540;8.576;2023-05-16T06:36:15;11.00;;;6.40;;
16826;SDS011;8530;49.540;8.576;2023-05-16T06:38:42;7.83;;;4.77;;
16826;SDS011;8530;49.540;8.576;2023-05-16T06:41:09;8.03;;;5.73;;
16826;SDS011;8530;49.540;8.576;2023-05-16T06:43:36;6.07;;;5.40;;
16826;SDS011;8530;49.540;8.576;2023-05-16T06:46:02;5.63;;;4.40;;
16826;SDS011;8530;49.540;8.576;2023-05-16T06:48:30;7.17;;;4.27;;
16826;SDS011;8530;49.540;8.576;2023-05-16T06:50:57;3.90;;;3.47;;
16826;SDS011;8530;49.540;8.576;2023-05-16T06:53:24;4.13;;;3.73;;
16826;SDS011;8530;49.540;8.576;2023-05-16T06:55:51;4.03;;;3.47;;
16826;SDS011;8530;49.540;8.576;2023-05-16T06:58:18;4.03;;;3.50;;
16826;SDS011;8530;49.540;8.576;2023-05-16T07:00:44;4.03;;;3.63;;
16826;SDS011;8530;49.540;8.576;2023-05-16T07:03:11;7.93;;;3.03;;
16826;SDS011;8530;49.540;8.576;2023-05-16T07:05:39;4.40;;;3.00;;
16826;SDS011;8530;49.540;8.576;2023-05-16T07:08:07;4.00;;;3.37;;
16826;SDS011;8530;49.540;8.576;2023-05-16T07:10:34;4.70;;;3.50;;
16826;SDS011;8530;49.540;8.576;2023-05-16T07:13:01;3.20;;;2.90;;
16826;SDS011;8530;49.540;8.576;2023-05-16T07:15:28;2.73;;;2.50;;
16826;SDS011;8530;49.540;8.576;2023-05-16T07:17:55;2.57;;;2.33;;
16826;SDS011;8530;49.540;8.576;2023-05-16T07:20:22;2.60;;;2.13;;
16826;SDS011;8530;49.540;8.576;2023-05-16T07:22:50;1.80;;;1.70;;
16826;SDS011;8530;49.540;8.576;2023-05-16T07:25:17;6.60;;;2.33;;
16826;SDS011;8530;49.540;8.576;2023-05-16T07:27:44;5.57;;;2.10;;
16826;SDS011;8530;49.540;8.576;2023-05-16T07:30:11;2.67;;;2.30;;
16826;SDS011;8530;49.540;8.576;2023-05-16T07:32:39;3.23;;;2.10;;
16826;SDS011;8530;49.540;8.576;2023-05-16T07:35:07;3.00;;;2.70;;
16826;SDS011;8530;49.540;8.576;2023-05-16T07:37:34;3.53;;;2.77;;
16826;SDS011;8530;49.540;8.576;2023-05-16T07:40:03;2.37;;;2.17;;
16826;SDS011;8530;49.540;8.576;2023-05-16T07:42:30;3.70;;;2.77;;
16826;SDS011;8530;49.540;8.576;2023-05-16T07:44:57;3.10;;;2.83;;
16826;SDS011;8530;49.540;8.576;2023-05-16T07:47:24;5.23;;;2.93;;
16826;SDS011;8530;49.540;8.576;2023-05-16T07:49:51;4.50;;;2.90;;
16826;SDS011;8530;49.540;8.576;2023-05-16T07:52:17;2.70;;;2.50;;
16826;SDS011;8530;49.540;8.576;2023-05-16T07:54:45;2.30;;;2.10;;
16826;SDS011;8530;49.540;8.576;2023-05-16T07:57:13;5.37;;;2.70;;
16826;SDS011;8530;49.540;8.576;2023-05-16T07:59:40;1.90;;;1.80;;
16826;SDS011;8530;49.540;8.576;2023-05-16T08:02:07;4.13;;;2.60;;
16826;SDS011;8530;49.540;8.576;2023-05-16T08:04:35;2.63;;;2.10;;
16826;SDS011;8530;49.540;8.576;2023-05-16T08:07:01;2.23;;;2.03;;
16826;SDS011;8530;49.540;8.576;2023-05-16T08:09:28;7.40;;;2.73;;
16826;SDS011;8530;49.540;8.576;2023-05-16T08:11:55;2.40;;;1.87;;
16826;SDS011;8530;49.540;8.576;2023-05-16T08:14:23;3.50;;;2.33;;
16826;SDS011;8530;49.540;8.576;2023-05-16T08:16:50;2.37;;;2.17;;
16826;SDS011;8530;49.540;8.576;2023-05-16T08:19:16;3.27;;;2.40;;
16826;SDS011;8530;49.540;8.576;2023-05-16T08:21:43;2.83;;;2.43;;
16826;SDS011;8530;49.540;8.576;2023-05-16T08:24:10;1.90;;;1.70;;
16826;SDS011;8530;49.540;8.576;2023-05-16T08:26:36;2.50;;;2.30;;
16826;SDS011;8530;49.540;8.576;2023-05-16T08:29:03;2.10;;;1.90;;
16826;SDS011;8530;49.540;8.576;2023-05-16T08:31:32;2.40;;;2.20;;
16826;SDS011;8530;49.540;8.576;2023-05-16T08:33:59;2.97;;;2.40;;
16826;SDS011;8530;49.540;8.576;2023-05-16T08:36:26;2.80;;;2.50;;
16826;SDS011;8530;49.540;8.576;2023-05-16T08:38:53;2.63;;;2.43;;
16826;SDS011;8530;49.540;8.576;2023-05-16T08:41:20;6.87;;;2.10;;
16826;SDS011;8530;49.540;8.576;2023-05-16T08:43:47;2.13;;;1.93;;
16826;SDS011;8530;49.540;8.576;2023-05-16T08:46:13;3.27;;;1.83;;
16826;SDS011;8530;49.540;8.576;2023-05-16T08:48:44;2.20;;;2.00;;
16826;SDS011;8530;49.540;8.576;2023-05-16T08:51:14;6.40;;;2.70;;
16826;SDS011;8530;49.540;8.576;2023-05-16T08:53:44;5.40;;;2.43;;
16826;SDS011;8530;49.540;8.576;2023-05-16T08:56:15;2.60;;;2.00;;
16826;SDS011;8530;49.540;8.576;2023-05-16T08:58:43;3.10;;;2.00;;
16826;SDS011;8530;49.540;8.576;2023-05-16T09:01:11;3.57;;;2.63;;
16826;SDS011;8530;49.540;8.576;2023-05-16T09:03:38;2.83;;;2.53;;
16826;SDS011;8530;49.540;8.576;2023-05-16T09:06:07;3.03;;;1.50;;
16826;SDS011;8530;49.540;8.576;2023-05-16T09:08:34;4.50;;;1.67;;
16826;SDS011;8530;49.540;8.576;2023-05-16T09:11:00;3.37;;;1.43;;
16826;SDS011;8530;49.540;8.576;2023-05-16T09:13:28;1.77;;;1.40;;
16826;SDS011;8530;49.540;8.576;2023-05-16T09:16:08;1.80;;;1.10;;
16826;SDS011;8530;49.540;8.576;2023-05-16T09:18:36;1.20;;;1.10;;
16826;SDS011;8530;49.540;8.576;2023-05-16T09:21:03;1.83;;;1.47;;
16826;SDS011;8530;49.540;8.576;2023-05-16T09:23:32;1.20;;;1.10;;
16826;SDS011;8530;49.540;8.576;2023-05-16T09:25:59;1.30;;;1.20;;
16826;SDS011;8530;49.540;8.576;2023-05-16T09:28:26;1.40;;;1.30;;
16826;SDS011;8530;49.540;8.576;2023-05-16T09:30:53;1.23;;;1.13;;
16826;SDS011;8530;49.540;8.576;2023-05-16T09:33:23;1.20;;;1.10;;
16826;SDS011;8530;49.540;8.576;2023-05-16T09:35:55;16.73;;;1.47;;
16826;SDS011;8530;49.540;8.576;2023-05-16T09:38:23;2.83;;;1.13;;
16826;SDS011;8530;49.540;8.576;2023-05-16T09:40:52;1.60;;;1.50;;
16826;SDS011;8530;49.540;8.576;2023-05-16T09:43:21;3.17;;;1.33;;
16826;SDS011;8530;49.540;8.576;2023-05-16T09:45:51;4.70;;;1.17;;
16826;SDS011;8530;49.540;8.576;2023-05-16T09:48:19;3.27;;;1.20;;
16826;SDS011;8530;49.540;8.576;2023-05-16T09:50:48;1.47;;;1.37;;
16826;SDS011;8530;49.540;8.576;2023-05-16T09:53:17;1.30;;;1.20;;
16826;SDS011;8530;49.540;8.576;2023-05-16T09:55:59;2.47;;;1.23;;
16826;SDS011;8530;49.540;8.576;2023-05-16T09:58:27;2.20;;;1.73;;
16826;SDS011;8530;49.540;8.576;2023-05-16T10:00:55;1.70;;;1.33;;
16826;SDS011;8530;49.540;8.576;2023-05-16T10:03:23;4.37;;;1.83;;
16826;SDS011;8530;49.540;8.576;2023-05-16T10:05:51;1.20;;;1.10;;
16826;SDS011;8530;49.540;8.576;2023-05-16T10:08:19;2.27;;;1.27;;
16826;SDS011;8530;49.540;8.576;2023-05-16T10:10:46;1.73;;;1.40;;
16826;SDS011;8530;49.540;8.576;2023-05-16T10:13:17;1.70;;;1.33;;
16826;SDS011;8530;49.540;8.576;2023-05-16T10:15:46;5.10;;;1.50;;
16826;SDS011;8530;49.540;8.576;2023-05-16T10:18:14;2.00;;;1.40;;
16826;SDS011;8530;49.540;8.576;2023-05-16T10:20:43;7.03;;;1.57;;
16826;SDS011;8530;49.540;8.576;2023-05-16T10:23:15;2.33;;;1.30;;
16826;SDS011;8530;49.540;8.576;2023-05-16T10:25:43;2.83;;;1.27;;
16826;SDS011;8530;49.540;8.576;2023-05-16T10:28:10;1.50;;;1.37;;
16826;SDS011;8530;49.540;8.576;2023-05-16T10:30:40;1.73;;;1.30;;
16826;SDS011;8530;49.540;8.576;2023-05-16T10:33:09;1.37;;;1.20;;
16826;SDS011;8530;49.540;8.576;2023-05-16T10:35:37;1.53;;;1.30;;
16826;SDS011;8530;49.540;8.576;2023-05-16T10:38:04;2.47;;;1.30;;
16826;SDS011;8530;49.540;8.576;2023-05-16T10:40:32;2.47;;;1.33;;
16826;SDS011;8530;49.540;8.576;2023-05-16T10:43:01;3.23;;;1.30;;
16826;SDS011;8530;49.540;8.576;2023-05-16T10:45:29;4.23;;;1.80;;
16826;SDS011;8530;49.540;8.576;2023-05-16T10:47:58;4.40;;;1.50;;
16826;SDS011;8530;49.540;8.576;2023-05-16T10:50:33;2.90;;;1.20;;
16826;SDS011;8530;49.540;8.576;2023-05-16T10:53:11;1.23;;;1.10;;
16826;SDS011;8530;49.540;8.576;2023-05-16T10:55:43;13.60;;;2.33;;
16826;SDS011;8530;49.540;8.576;2023-05-16T10:58:17;1.30;;;1.20;;
16826;SDS011;8530;49.540;8.576;2023-05-16T11:00:44;4.60;;;2.13;;
16826;SDS011;8530;49.540;8.576;2023-05-16T11:03:21;2.10;;;1.70;;
16826;SDS011;8530;49.540;8.576;2023-05-16T11:05:52;2.60;;;1.77;;
16826;SDS011;8530;49.540;8.576;2023-05-16T11:08:19;1.70;;;1.60;;
16826;SDS011;8530;49.540;8.576;2023-05-16T11:10:45;3.80;;;2.13;;
16826;SDS011;8530;49.540;8.576;2023-05-16T11:13:12;2.00;;;1.40;;
16826;SDS011;8530;49.540;8.576;2023-05-16T11:15:43;1.87;;;1.50;;
16826;SDS011;8530;49.540;8.576;2023-05-16T11:18:13;2.23;;;1.70;;
16826;SDS011;8530;49.540;8.576;2023-05-16T11:20:42;2.03;;;1.70;;
16826;SDS011;8530;49.540;8.576;2023-05-16T11:23:21;4.63;;;2.50;;
16826;SDS011;8530;49.540;8.576;2023-05-16T11:25:54;2.97;;;1.43;;
16826;SDS011;8530;49.540;8.576;2023-05-16T11:28:22;4.63;;;1.70;;
16826;SDS011;8530;49.540;8.576;2023-05-16T11:30:51;4.03;;;1.77;;
16826;SDS011;8530;49.540;8.576;2023-05-16T11:33:20;1.90;;;1.70;;
16826;SDS011;8530;49.540;8.576;2023-05-16T11:36:02;2.97;;;1.60;;
16826;SDS011;8530;49.540;8.576;2023-05-16T11:38:29;2.43;;;2.07;;
16826;SDS011;8530;49.540;8.576;2023-05-16T11:41:00;1.53;;;1.43;;
16826;SDS011;8530;49.540;8.576;2023-05-16T11:43:38;7.33;;;1.97;;
16826;SDS011;8530;49.540;8.576;2023-05-16T11:46:06;3.13;;;2.40;;
16826;SDS011;8530;49.540;8.576;2023-05-16T11:48:36;1.70;;;1.60;;
16826;SDS011;8530;49.540;8.576;2023-05-16T11:51:04;6.03;;;1.97;;
16826;SDS011;8530;49.540;8.576;2023-05-16T11:53:31;5.63;;;2.60;;
16826;SDS011;8530;49.540;8.576;2023-05-16T11:55:59;3.00;;;1.60;;
16826;SDS011;8530;49.540;8.576;2023-05-16T11:58:26;4.43;;;2.10;;
16826;SDS011;8530;49.540;8.576;2023-05-16T12:00:53;5.30;;;2.10;;
16826;SDS011;8530;49.540;8.576;2023-05-16T12:03:20;3.37;;;1.90;;
16826;SDS011;8530;49.540;8.576;2023-05-16T12:05:50;2.33;;;1.90;;
16826;SDS011;8530;49.540;8.576;2023-05-16T12:08:19;7.47;;;2.87;;
16826;SDS011;8530;49.540;8.576;2023-05-16T12:10:49;6.70;;;2.30;;
16826;SDS011;8530;49.540;8.576;2023-05-16T12:13:16;2.80;;;1.80;;
16826;SDS011;8530;49.540;8.576;2023-05-16T12:15:44;5.87;;;2.23;;
16826;SDS011;8530;49.540;8.576;2023-05-16T12:18:11;5.17;;;1.87;;
16826;SDS011;8530;49.540;8.576;2023-05-16T12:20:38;3.73;;;2.07;;
16826;SDS011;8530;49.540;8.576;2023-05-16T12:23:09;8.70;;;2.50;;
16826;SDS011;8530;49.540;8.576;2023-05-16T12:25:37;4.30;;;2.23;;
16826;SDS011;8530;49.540;8.576;2023-05-16T12:28:07;3.40;;;2.17;;
16826;SDS011;8530;49.540;8.576;2023-05-16T12:30:38;5.50;;;2.43;;
16826;SDS011;8530;49.540;8.576;2023-05-16T12:33:07;2.63;;;2.10;;
16826;SDS011;8530;49.540;8.576;2023-05-16T12:35:36;6.63;;;1.93;;
16826;SDS011;8530;49.540;8.576;2023-05-16T12:38:04;6.60;;;2.40;;
16826;SDS011;8530;49.540;8.576;2023-05-16T12:40:31;3.97;;;2.20;;
16826;SDS011;8530;49.540;8.576;2023-05-16T12:42:59;7.00;;;2.10;;
16826;SDS011;8530;49.540;8.576;2023-05-16T12:45:26;4.57;;;2.57;;
16826;SDS011;8530;49.540;8.576;2023-05-16T12:47:53;8.30;;;3.60;;
16826;SDS011;8530;49.540;8.576;2023-05-16T12:50:20;9.13;;;3.20;;
16826;SDS011;8530;49.540;8.576;2023-05-16T12:52:48;5.07;;;1.93;;
16826;SDS011;8530;49.540;8.576;2023-05-16T12:55:16;5.50;;;2.10;;
16826;SDS011;8530;49.540;8.576;2023-05-16T12:57:43;11.23;;;2.60;;
16826;SDS011;8530;49.540;8.576;2023-05-16T13:00:13;5.83;;;2.20;;
16826;SDS011;8530;49.540;8.576;2023-05-16T13:02:42;4.13;;;2.17;;
16826;SDS011;8530;49.540;8.576;2023-05-16T13:05:09;5.83;;;2.40;;
16826;SDS011;8530;49.540;8.576;2023-05-16T13:07:36;12.80;;;2.67;;
16826;SDS011;8530;49.540;8.576;2023-05-16T13:10:05;8.47;;;3.23;;
16826;SDS011;8530;49.540;8.576;2023-05-16T13:12:34;4.30;;;2.20;;
16826;SDS011;8530;49.540;8.576;2023-05-16T13:15:01;9.77;;;2.90;;
16826;SDS011;8530;49.540;8.576;2023-05-16T13:17:29;5.87;;;2.53;;
16826;SDS011;8530;49.540;8.576;2023-05-16T13:19:56;8.20;;;2.23;;
16826;SDS011;8530;49.540;8.576;2023-05-16T13:22:22;4.70;;;2.17;;
16826;SDS011;8530;49.540;8.576;2023-05-16T13:24:49;5.90;;;2.40;;
16826;SDS011;8530;49.540;8.576;2023-05-16T13:27:16;11.00;;;2.17;;
16826;SDS011;8530;49.540;8.576;2023-05-16T13:29:43;3.17;;;2.00;;
16826;SDS011;8530;49.540;8.576;2023-05-16T13:32:10;5.40;;;2.07;;
16826;SDS011;8530;49.540;8.576;2023-05-16T13:34:38;9.23;;;2.40;;
16826;SDS011;8530;49.540;8.576;2023-05-16T13:37:04;3.60;;;1.87;;
16826;SDS011;8530;49.540;8.576;2023-05-16T13:39:32;7.43;;;2.03;;
16826;SDS011;8530;49.540;8.576;2023-05-16T13:41:58;5.40;;;2.37;;
16826;SDS011;8530;49.540;8.576;2023-05-16T13:44:27;4.20;;;1.83;;
16826;SDS011;8530;49.540;8.576;2023-05-16T13:46:53;4.70;;;2.60;;
16826;SDS011;8530;49.540;8.576;2023-05-16T13:49:20;4.23;;;1.87;;
16826;SDS011;8530;49.540;8.576;2023-05-16T13:51:49;5.13;;;1.63;;
16826;SDS011;8530;49.540;8.576;2023-05-16T13:54:16;3.30;;;1.93;;
16826;SDS011;8530;49.540;8.576;2023-05-16T13:56:43;4.27;;;2.10;;
16826;SDS011;8530;49.540;8.576;2023-05-16T13:59:10;5.17;;;2.27;;
16826;SDS011;8530;49.540;8.576;2023-05-16T14:01:36;5.80;;;2.17;;
16826;SDS011;8530;49.540;8.576;2023-05-16T14:04:03;10.87;;;2.70;;
16826;SDS011;8530;49.540;8.576;2023-05-16T14:06:30;5.80;;;2.13;;
16826;SDS011;8530;49.540;8.576;2023-05-16T14:08:58;9.37;;;2.73;;
16826;SDS011;8530;49.540;8.576;2023-05-16T14:11:25;6.43;;;2.40;;
16826;SDS011;8530;49.540;8.576;2023-05-16T14:13:52;10.00;;;2.20;;
16826;SDS011;8530;49.540;8.576;2023-05-16T14:16:18;16.03;;;3.23;;
16826;SDS011;8530;49.540;8.576;2023-05-16T14:18:45;3.00;;;1.77;;
16826;SDS011;8530;49.540;8.576;2023-05-16T14:21:12;9.10;;;2.30;;
16826;SDS011;8530;49.540;8.576;2023-05-16T14:23:39;5.60;;;2.17;;
16826;SDS011;8530;49.540;8.576;2023-05-16T14:26:07;8.93;;;2.70;;
16826;SDS011;8530;49.540;8.576;2023-05-16T14:28:34;7.37;;;2.50;;
16826;SDS011;8530;49.540;8.576;2023-05-16T14:31:01;4.23;;;2.43;;
16826;SDS011;8530;49.540;8.576;2023-05-16T14:33:27;5.67;;;2.53;;
16826;SDS011;8530;49.540;8.576;2023-05-16T14:35:55;6.30;;;2.80;;
16826;SDS011;8530;49.540;8.576;2023-05-16T14:38:21;5.50;;;2.00;;
16826;SDS011;8530;49.540;8.576;2023-05-16T14:40:48;3.00;;;2.10;;
16826;SDS011;8530;49.540;8.576;2023-05-16T14:43:16;5.10;;;2.30;;
16826;SDS011;8530;49.540;8.576;2023-05-16T14:45:43;8.83;;;2.07;;
16826;SDS011;8530;49.540;8.576;2023-05-16T14:48:10;6.50;;;2.20;;
16826;SDS011;8530;49.540;8.576;2023-05-16T14:50:37;4.97;;;1.90;;
16826;SDS011;8530;49.540;8.576;2023-05-16T14:53:03;5.30;;;2.20;;
16826;SDS011;8530;49.540;8.576;2023-05-16T14:55:30;6.33;;;2.00;;